KALB

Albany International Airport

Albany, New York, USA
METAR KALB 231451Z 31007KT 10SM FEW024 SCT028 BKN260 21/13 A2996 RMK AO2 SLP146 T02110133 50002
Observed Flight Rules
May-23 @ 14:51 UTC (14 minutes ago) Visual Flight Rules
Wind Visibility Clouds
310° at 7 knots 10 miles
  • Few at 2,400' AGL
  • Scattered at 2,800' AGL
  • Broken at 26,000' AGL
Temperatures Readings
Current 21°C / 70°F
Dewpoint 13°C / 55°F
Humidity 60%
Altimeter 29.96" Hg
Pressure 1014.6 hPa
Elevation 92
METAR KALB 231451Z 31007KT 10SM FEW024 SCT028 BKN260 21/13 A2996 RMK AO2 SLP146 T02110133 50002
Observed Flight Rules
May-23 @ 14:51 UTC
(14 minutes ago)
VFR
Wind Visibility
310° at 7 knots 10 miles
Clouds
  • Few at 2,400' AGL
  • Scattered at 2,800' AGL
  • Broken at 26,000' AGL
Temperature Dewpoint
21°C / 70°F 13°C / 55°F
Humidity Altimeter Pressure
60% 29.96" Hg 1014.6 hPa